sensor_id;sensor_type;location;lat;lon;timestamp;P1;durP1;ratioP1;P2;durP2;ratioP2
41755;SDS011;27435;48.480;9.258;2023-05-16T00:01:55;13.80;;;8.83;;
41755;SDS011;27435;48.480;9.258;2023-05-16T00:04:21;14.93;;;9.30;;
41755;SDS011;27435;48.480;9.258;2023-05-16T00:06:47;16.43;;;9.80;;
41755;SDS011;27435;48.480;9.258;2023-05-16T00:09:13;15.17;;;9.70;;
41755;SDS011;27435;48.480;9.258;2023-05-16T00:11:38;14.33;;;10.03;;
41755;SDS011;27435;48.480;9.258;2023-05-16T00:14:04;23.33;;;12.00;;
41755;SDS011;27435;48.480;9.258;2023-05-16T00:16:30;16.00;;;10.53;;
41755;SDS011;27435;48.480;9.258;2023-05-16T00:18:56;14.80;;;10.10;;
41755;SDS011;27435;48.480;9.258;2023-05-16T00:21:24;16.20;;;9.87;;
41755;SDS011;27435;48.480;9.258;2023-05-16T00:23:50;17.03;;;10.03;;
41755;SDS011;27435;48.480;9.258;2023-05-16T00:26:17;13.70;;;8.97;;
41755;SDS011;27435;48.480;9.258;2023-05-16T00:28:42;12.50;;;8.70;;
41755;SDS011;27435;48.480;9.258;2023-05-16T00:31:08;14.50;;;8.37;;
41755;SDS011;27435;48.480;9.258;2023-05-16T00:33:34;16.63;;;8.83;;
41755;SDS011;27435;48.480;9.258;2023-05-16T00:35:59;12.67;;;8.73;;
41755;SDS011;27435;48.480;9.258;2023-05-16T00:38:25;13.10;;;9.20;;
41755;SDS011;27435;48.480;9.258;2023-05-16T00:40:51;13.13;;;9.10;;
41755;SDS011;27435;48.480;9.258;2023-05-16T00:43:17;11.10;;;8.37;;
41755;SDS011;27435;48.480;9.258;2023-05-16T00:45:42;17.70;;;8.20;;
41755;SDS011;27435;48.480;9.258;2023-05-16T00:48:08;12.57;;;8.17;;
41755;SDS011;27435;48.480;9.258;2023-05-16T00:50:36;17.10;;;8.47;;
41755;SDS011;27435;48.480;9.258;2023-05-16T00:53:02;14.10;;;9.00;;
41755;SDS011;27435;48.480;9.258;2023-05-16T00:55:28;15.27;;;8.77;;
41755;SDS011;27435;48.480;9.258;2023-05-16T00:57:54;16.20;;;10.43;;
41755;SDS011;27435;48.480;9.258;2023-05-16T01:00:20;16.70;;;9.90;;
41755;SDS011;27435;48.480;9.258;2023-05-16T01:02:46;15.77;;;9.80;;
41755;SDS011;27435;48.480;9.258;2023-05-16T01:05:12;14.53;;;8.50;;
41755;SDS011;27435;48.480;9.258;2023-05-16T01:07:37;13.23;;;9.47;;
41755;SDS011;27435;48.480;9.258;2023-05-16T01:10:03;13.93;;;8.50;;
41755;SDS011;27435;48.480;9.258;2023-05-16T01:12:35;14.27;;;9.43;;
41755;SDS011;27435;48.480;9.258;2023-05-16T01:17:42;11.07;;;7.10;;
41755;SDS011;27435;48.480;9.258;2023-05-16T01:20:30;13.07;;;6.73;;
41755;SDS011;27435;48.480;9.258;2023-05-16T01:23:16;16.03;;;8.40;;
41755;SDS011;27435;48.480;9.258;2023-05-16T01:26:10;12.97;;;8.23;;
41755;SDS011;27435;48.480;9.258;2023-05-16T01:28:52;12.83;;;9.00;;
41755;SDS011;27435;48.480;9.258;2023-05-16T01:31:19;15.97;;;8.73;;
41755;SDS011;27435;48.480;9.258;2023-05-16T01:33:45;12.90;;;8.63;;
41755;SDS011;27435;48.480;9.258;2023-05-16T01:36:14;12.07;;;9.20;;
41755;SDS011;27435;48.480;9.258;2023-05-16T01:39:19;14.50;;;9.23;;
41755;SDS011;27435;48.480;9.258;2023-05-16T01:42:08;12.07;;;8.45;;
41755;SDS011;27435;48.480;9.258;2023-05-16T01:44:40;12.93;;;8.67;;
41755;SDS011;27435;48.480;9.258;2023-05-16T01:47:12;15.97;;;8.77;;
41755;SDS011;27435;48.480;9.258;2023-05-16T01:55:23;16.13;;;10.13;;
41755;SDS011;27435;48.480;9.258;2023-05-16T01:57:58;16.53;;;11.57;;
41755;SDS011;27435;48.480;9.258;2023-05-16T02:00:28;13.87;;;9.93;;
41755;SDS011;27435;48.480;9.258;2023-05-16T02:02:54;15.43;;;10.70;;
41755;SDS011;27435;48.480;9.258;2023-05-16T02:05:20;22.37;;;10.97;;
41755;SDS011;27435;48.480;9.258;2023-05-16T02:07:45;16.57;;;10.50;;
41755;SDS011;27435;48.480;9.258;2023-05-16T02:10:11;15.57;;;10.80;;
41755;SDS011;27435;48.480;9.258;2023-05-16T02:12:38;15.87;;;9.83;;
41755;SDS011;27435;48.480;9.258;2023-05-16T02:15:04;16.63;;;10.83;;
41755;SDS011;27435;48.480;9.258;2023-05-16T02:17:30;16.67;;;10.17;;
41755;SDS011;27435;48.480;9.258;2023-05-16T02:19:56;17.17;;;10.30;;
41755;SDS011;27435;48.480;9.258;2023-05-16T02:22:21;17.97;;;10.87;;
41755;SDS011;27435;48.480;9.258;2023-05-16T02:24:47;14.03;;;9.67;;
41755;SDS011;27435;48.480;9.258;2023-05-16T02:27:12;21.50;;;13.97;;
41755;SDS011;27435;48.480;9.258;2023-05-16T02:29:38;20.83;;;13.90;;
41755;SDS011;27435;48.480;9.258;2023-05-16T02:32:04;18.57;;;12.80;;
41755;SDS011;27435;48.480;9.258;2023-05-16T02:34:30;20.37;;;12.97;;
41755;SDS011;27435;48.480;9.258;2023-05-16T02:36:55;19.27;;;11.93;;
41755;SDS011;27435;48.480;9.258;2023-05-16T02:39:21;20.80;;;12.40;;
41755;SDS011;27435;48.480;9.258;2023-05-16T02:41:47;21.70;;;12.63;;
41755;SDS011;27435;48.480;9.258;2023-05-16T02:44:12;16.63;;;11.23;;
41755;SDS011;27435;48.480;9.258;2023-05-16T02:46:38;18.03;;;11.43;;
41755;SDS011;27435;48.480;9.258;2023-05-16T02:49:03;18.53;;;12.20;;
41755;SDS011;27435;48.480;9.258;2023-05-16T02:51:29;18.20;;;11.53;;
41755;SDS011;27435;48.480;9.258;2023-05-16T02:53:55;19.30;;;11.60;;
41755;SDS011;27435;48.480;9.258;2023-05-16T02:56:21;19.43;;;12.27;;
41755;SDS011;27435;48.480;9.258;2023-05-16T02:58:47;19.97;;;11.60;;
41755;SDS011;27435;48.480;9.258;2023-05-16T03:01:14;18.57;;;12.93;;
41755;SDS011;27435;48.480;9.258;2023-05-16T03:03:40;27.13;;;13.10;;
41755;SDS011;27435;48.480;9.258;2023-05-16T03:06:06;20.83;;;13.73;;
41755;SDS011;27435;48.480;9.258;2023-05-16T03:08:32;21.83;;;13.47;;
41755;SDS011;27435;48.480;9.258;2023-05-16T03:10:59;18.50;;;12.27;;
41755;SDS011;27435;48.480;9.258;2023-05-16T03:13:24;18.87;;;11.80;;
41755;SDS011;27435;48.480;9.258;2023-05-16T03:15:50;22.20;;;13.37;;
41755;SDS011;27435;48.480;9.258;2023-05-16T03:18:16;23.37;;;14.33;;
41755;SDS011;27435;48.480;9.258;2023-05-16T03:20:42;20.57;;;12.90;;
41755;SDS011;27435;48.480;9.258;2023-05-16T03:23:07;25.70;;;14.17;;
41755;SDS011;27435;48.480;9.258;2023-05-16T03:25:33;21.23;;;14.17;;
41755;SDS011;27435;48.480;9.258;2023-05-16T03:28:00;24.50;;;14.20;;
41755;SDS011;27435;48.480;9.258;2023-05-16T03:30:26;19.50;;;13.23;;
41755;SDS011;27435;48.480;9.258;2023-05-16T03:32:52;22.13;;;13.60;;
41755;SDS011;27435;48.480;9.258;2023-05-16T03:35:19;22.67;;;13.33;;
41755;SDS011;27435;48.480;9.258;2023-05-16T03:37:45;23.97;;;14.40;;
41755;SDS011;27435;48.480;9.258;2023-05-16T03:40:10;21.93;;;14.33;;
41755;SDS011;27435;48.480;9.258;2023-05-16T03:42:36;24.57;;;15.07;;
41755;SDS011;27435;48.480;9.258;2023-05-16T03:45:03;26.33;;;15.33;;
41755;SDS011;27435;48.480;9.258;2023-05-16T03:47:30;23.90;;;15.53;;
41755;SDS011;27435;48.480;9.258;2023-05-16T03:49:56;21.93;;;14.57;;
41755;SDS011;27435;48.480;9.258;2023-05-16T03:52:22;27.30;;;16.17;;
41755;SDS011;27435;48.480;9.258;2023-05-16T03:54:47;22.83;;;15.43;;
41755;SDS011;27435;48.480;9.258;2023-05-16T03:57:13;25.40;;;15.53;;
41755;SDS011;27435;48.480;9.258;2023-05-16T03:59:38;27.53;;;17.50;;
41755;SDS011;27435;48.480;9.258;2023-05-16T04:02:04;24.30;;;15.80;;
41755;SDS011;27435;48.480;9.258;2023-05-16T04:04:30;29.77;;;16.83;;
41755;SDS011;27435;48.480;9.258;2023-05-16T04:06:56;37.70;;;19.77;;
41755;SDS011;27435;48.480;9.258;2023-05-16T04:09:21;29.97;;;17.53;;
41755;SDS011;27435;48.480;9.258;2023-05-16T04:11:47;33.17;;;17.77;;
41755;SDS011;27435;48.480;9.258;2023-05-16T04:14:13;31.03;;;16.50;;
41755;SDS011;27435;48.480;9.258;2023-05-16T04:16:39;30.50;;;17.23;;
41755;SDS011;27435;48.480;9.258;2023-05-16T04:19:05;31.53;;;17.97;;
41755;SDS011;27435;48.480;9.258;2023-05-16T04:21:31;31.13;;;19.23;;
41755;SDS011;27435;48.480;9.258;2023-05-16T04:23:57;35.13;;;18.37;;
41755;SDS011;27435;48.480;9.258;2023-05-16T04:26:23;33.50;;;18.37;;
41755;SDS011;27435;48.480;9.258;2023-05-16T04:28:48;29.80;;;18.37;;
41755;SDS011;27435;48.480;9.258;2023-05-16T04:31:14;27.57;;;17.50;;
41755;SDS011;27435;48.480;9.258;2023-05-16T04:33:40;31.93;;;18.57;;
41755;SDS011;27435;48.480;9.258;2023-05-16T04:36:06;36.47;;;20.07;;
41755;SDS011;27435;48.480;9.258;2023-05-16T04:38:32;38.23;;;19.43;;
41755;SDS011;27435;48.480;9.258;2023-05-16T04:40:58;46.33;;;22.90;;
41755;SDS011;27435;48.480;9.258;2023-05-16T04:43:24;39.93;;;21.60;;
41755;SDS011;27435;48.480;9.258;2023-05-16T04:45:50;39.47;;;22.53;;
41755;SDS011;27435;48.480;9.258;2023-05-16T04:48:17;40.97;;;22.00;;
41755;SDS011;27435;48.480;9.258;2023-05-16T04:50:43;41.67;;;23.27;;
41755;SDS011;27435;48.480;9.258;2023-05-16T04:53:09;47.47;;;25.13;;
41755;SDS011;27435;48.480;9.258;2023-05-16T04:55:34;54.70;;;26.33;;
41755;SDS011;27435;48.480;9.258;2023-05-16T04:58:00;48.97;;;23.93;;
41755;SDS011;27435;48.480;9.258;2023-05-16T05:00:26;56.73;;;26.83;;
41755;SDS011;27435;48.480;9.258;2023-05-16T05:02:52;53.87;;;27.13;;
41755;SDS011;27435;48.480;9.258;2023-05-16T05:05:17;48.40;;;25.47;;
41755;SDS011;27435;48.480;9.258;2023-05-16T05:07:43;50.90;;;26.23;;
41755;SDS011;27435;48.480;9.258;2023-05-16T05:10:09;53.90;;;27.93;;
41755;SDS011;27435;48.480;9.258;2023-05-16T05:12:35;55.77;;;29.20;;
41755;SDS011;27435;48.480;9.258;2023-05-16T05:15:01;62.47;;;30.60;;
41755;SDS011;27435;48.480;9.258;2023-05-16T05:17:27;66.03;;;30.80;;
41755;SDS011;27435;48.480;9.258;2023-05-16T05:19:53;55.93;;;29.17;;
41755;SDS011;27435;48.480;9.258;2023-05-16T05:22:19;57.00;;;28.83;;
41755;SDS011;27435;48.480;9.258;2023-05-16T05:24:45;62.27;;;30.37;;
41755;SDS011;27435;48.480;9.258;2023-05-16T05:27:11;58.50;;;31.77;;
41755;SDS011;27435;48.480;9.258;2023-05-16T05:29:37;64.37;;;32.63;;
41755;SDS011;27435;48.480;9.258;2023-05-16T05:32:02;63.03;;;32.87;;
41755;SDS011;27435;48.480;9.258;2023-05-16T05:34:28;68.77;;;33.00;;
41755;SDS011;27435;48.480;9.258;2023-05-16T05:36:54;61.20;;;31.47;;
41755;SDS011;27435;48.480;9.258;2023-05-16T05:39:20;63.23;;;31.80;;
41755;SDS011;27435;48.480;9.258;2023-05-16T05:41:46;68.47;;;32.53;;
41755;SDS011;27435;48.480;9.258;2023-05-16T05:44:12;74.10;;;33.67;;
41755;SDS011;27435;48.480;9.258;2023-05-16T05:46:37;62.77;;;31.33;;
41755;SDS011;27435;48.480;9.258;2023-05-16T05:49:04;66.80;;;33.93;;
41755;SDS011;27435;48.480;9.258;2023-05-16T05:51:30;71.43;;;34.63;;
41755;SDS011;27435;48.480;9.258;2023-05-16T05:53:55;64.47;;;33.03;;
41755;SDS011;27435;48.480;9.258;2023-05-16T05:56:21;73.33;;;34.63;;
41755;SDS011;27435;48.480;9.258;2023-05-16T05:58:48;69.37;;;33.17;;
41755;SDS011;27435;48.480;9.258;2023-05-16T06:01:14;63.37;;;33.60;;
41755;SDS011;27435;48.480;9.258;2023-05-16T06:03:40;65.80;;;34.43;;
41755;SDS011;27435;48.480;9.258;2023-05-16T06:06:07;71.73;;;35.63;;
41755;SDS011;27435;48.480;9.258;2023-05-16T06:08:33;69.60;;;35.03;;
41755;SDS011;27435;48.480;9.258;2023-05-16T06:10:59;72.10;;;34.40;;
41755;SDS011;27435;48.480;9.258;2023-05-16T06:13:25;73.67;;;32.93;;
41755;SDS011;27435;48.480;9.258;2023-05-16T06:15:51;67.13;;;32.20;;
41755;SDS011;27435;48.480;9.258;2023-05-16T06:18:18;68.53;;;33.10;;
41755;SDS011;27435;48.480;9.258;2023-05-16T06:20:44;65.13;;;33.37;;
41755;SDS011;27435;48.480;9.258;2023-05-16T06:23:10;67.90;;;33.67;;
41755;SDS011;27435;48.480;9.258;2023-05-16T06:25:35;68.17;;;33.17;;
41755;SDS011;27435;48.480;9.258;2023-05-16T06:28:01;72.80;;;32.67;;
41755;SDS011;27435;48.480;9.258;2023-05-16T06:30:27;76.93;;;34.67;;
41755;SDS011;27435;48.480;9.258;2023-05-16T06:32:52;73.47;;;32.83;;
41755;SDS011;27435;48.480;9.258;2023-05-16T06:35:18;69.13;;;33.97;;
41755;SDS011;27435;48.480;9.258;2023-05-16T06:37:44;67.53;;;33.03;;
41755;SDS011;27435;48.480;9.258;2023-05-16T06:40:09;68.80;;;33.87;;
41755;SDS011;27435;48.480;9.258;2023-05-16T06:42:35;66.07;;;34.63;;
41755;SDS011;27435;48.480;9.258;2023-05-16T06:45:01;75.03;;;34.33;;
41755;SDS011;27435;48.480;9.258;2023-05-16T06:47:27;68.13;;;34.33;;
41755;SDS011;27435;48.480;9.258;2023-05-16T06:49:53;66.07;;;33.57;;
41755;SDS011;27435;48.480;9.258;2023-05-16T06:52:18;66.43;;;33.53;;
41755;SDS011;27435;48.480;9.258;2023-05-16T06:54:44;67.77;;;32.67;;
41755;SDS011;27435;48.480;9.258;2023-05-16T06:57:10;68.93;;;33.87;;
41755;SDS011;27435;48.480;9.258;2023-05-16T06:59:35;67.17;;;33.37;;
41755;SDS011;27435;48.480;9.258;2023-05-16T07:02:01;69.87;;;33.93;;
41755;SDS011;27435;48.480;9.258;2023-05-16T07:04:27;62.60;;;31.33;;
41755;SDS011;27435;48.480;9.258;2023-05-16T07:06:52;65.00;;;32.27;;
41755;SDS011;27435;48.480;9.258;2023-05-16T07:09:19;63.43;;;29.90;;
41755;SDS011;27435;48.480;9.258;2023-05-16T07:11:45;66.83;;;32.40;;
41755;SDS011;27435;48.480;9.258;2023-05-16T07:14:10;61.40;;;30.87;;
41755;SDS011;27435;48.480;9.258;2023-05-16T07:16:36;59.20;;;30.27;;
41755;SDS011;27435;48.480;9.258;2023-05-16T07:19:02;61.50;;;32.13;;
41755;SDS011;27435;48.480;9.258;2023-05-16T07:21:27;61.80;;;30.27;;
41755;SDS011;27435;48.480;9.258;2023-05-16T07:23:53;60.63;;;31.07;;
41755;SDS011;27435;48.480;9.258;2023-05-16T07:26:19;61.33;;;30.67;;
41755;SDS011;27435;48.480;9.258;2023-05-16T07:28:47;55.80;;;30.70;;
41755;SDS011;27435;48.480;9.258;2023-05-16T07:31:16;57.57;;;28.20;;
41755;SDS011;27435;48.480;9.258;2023-05-16T07:33:42;56.77;;;31.73;;
41755;SDS011;27435;48.480;9.258;2023-05-16T07:36:08;60.77;;;30.57;;
41755;SDS011;27435;48.480;9.258;2023-05-16T07:38:34;55.83;;;29.63;;
41755;SDS011;27435;48.480;9.258;2023-05-16T07:41:00;51.83;;;28.43;;
41755;SDS011;27435;48.480;9.258;2023-05-16T07:43:26;49.37;;;25.97;;
41755;SDS011;27435;48.480;9.258;2023-05-16T07:45:51;52.40;;;28.00;;
41755;SDS011;27435;48.480;9.258;2023-05-16T07:48:17;54.43;;;28.80;;
41755;SDS011;27435;48.480;9.258;2023-05-16T07:50:43;53.77;;;28.93;;
41755;SDS011;27435;48.480;9.258;2023-05-16T07:53:08;43.77;;;24.60;;
41755;SDS011;27435;48.480;9.258;2023-05-16T07:55:34;47.87;;;26.17;;
41755;SDS011;27435;48.480;9.258;2023-05-16T07:58:00;48.50;;;26.53;;
41755;SDS011;27435;48.480;9.258;2023-05-16T08:00:25;50.17;;;25.90;;
41755;SDS011;27435;48.480;9.258;2023-05-16T08:02:51;50.80;;;26.13;;
41755;SDS011;27435;48.480;9.258;2023-05-16T08:05:17;44.80;;;25.57;;
41755;SDS011;27435;48.480;9.258;2023-05-16T08:07:42;40.77;;;24.73;;
41755;SDS011;27435;48.480;9.258;2023-05-16T08:10:08;41.80;;;23.43;;
41755;SDS011;27435;48.480;9.258;2023-05-16T08:12:34;42.77;;;24.13;;
41755;SDS011;27435;48.480;9.258;2023-05-16T08:15:00;42.47;;;23.97;;
41755;SDS011;27435;48.480;9.258;2023-05-16T08:17:27;47.47;;;23.37;;
41755;SDS011;27435;48.480;9.258;2023-05-16T08:19:52;38.47;;;23.33;;
41755;SDS011;27435;48.480;9.258;2023-05-16T08:22:18;41.20;;;23.20;;
41755;SDS011;27435;48.480;9.258;2023-05-16T08:24:44;43.73;;;23.60;;
41755;SDS011;27435;48.480;9.258;2023-05-16T08:27:09;38.43;;;22.03;;
41755;SDS011;27435;48.480;9.258;2023-05-16T08:29:36;42.87;;;24.10;;
41755;SDS011;27435;48.480;9.258;2023-05-16T08:32:01;42.80;;;22.47;;
41755;SDS011;27435;48.480;9.258;2023-05-16T08:34:29;38.77;;;22.27;;
41755;SDS011;27435;48.480;9.258;2023-05-16T08:36:56;43.30;;;22.80;;
41755;SDS011;27435;48.480;9.258;2023-05-16T08:39:21;40.63;;;22.93;;
41755;SDS011;27435;48.480;9.258;2023-05-16T08:41:47;40.13;;;23.53;;
41755;SDS011;27435;48.480;9.258;2023-05-16T08:44:13;36.67;;;21.70;;
41755;SDS011;27435;48.480;9.258;2023-05-16T08:46:47;39.10;;;23.27;;
41755;SDS011;27435;48.480;9.258;2023-05-16T08:49:16;41.10;;;22.40;;
41755;SDS011;27435;48.480;9.258;2023-05-16T08:51:43;39.93;;;22.30;;
41755;SDS011;27435;48.480;9.258;2023-05-16T08:54:12;32.07;;;18.23;;
41755;SDS011;27435;48.480;9.258;2023-05-16T08:56:40;34.70;;;19.03;;
41755;SDS011;27435;48.480;9.258;2023-05-16T08:59:06;29.37;;;18.53;;
41755;SDS011;27435;48.480;9.258;2023-05-16T09:01:32;29.90;;;18.87;;
41755;SDS011;27435;48.480;9.258;2023-05-16T09:03:58;36.10;;;19.53;;
41755;SDS011;27435;48.480;9.258;2023-05-16T09:06:25;27.60;;;18.40;;
41755;SDS011;27435;48.480;9.258;2023-05-16T09:08:54;31.90;;;19.23;;
41755;SDS011;27435;48.480;9.258;2023-05-16T09:11:20;28.00;;;18.50;;
41755;SDS011;27435;48.480;9.258;2023-05-16T09:13:46;35.00;;;19.30;;
41755;SDS011;27435;48.480;9.258;2023-05-16T09:16:13;31.67;;;18.73;;
41755;SDS011;27435;48.480;9.258;2023-05-16T09:18:41;29.87;;;18.87;;
41755;SDS011;27435;48.480;9.258;2023-05-16T09:21:09;31.63;;;20.20;;
41755;SDS011;27435;48.480;9.258;2023-05-16T09:23:36;29.73;;;18.67;;
41755;SDS011;27435;48.480;9.258;2023-05-16T09:26:02;30.00;;;19.13;;
41755;SDS011;27435;48.480;9.258;2023-05-16T09:28:31;32.20;;;19.53;;
41755;SDS011;27435;48.480;9.258;2023-05-16T09:30:57;34.10;;;19.27;;
41755;SDS011;27435;48.480;9.258;2023-05-16T09:33:26;28.73;;;18.17;;
41755;SDS011;27435;48.480;9.258;2023-05-16T09:35:57;26.90;;;17.70;;
41755;SDS011;27435;48.480;9.258;2023-05-16T09:38:24;26.87;;;17.63;;
41755;SDS011;27435;48.480;9.258;2023-05-16T09:40:51;26.07;;;16.97;;
41755;SDS011;27435;48.480;9.258;2023-05-16T09:43:19;28.20;;;17.27;;
41755;SDS011;27435;48.480;9.258;2023-05-16T09:45:47;24.43;;;17.27;;
41755;SDS011;27435;48.480;9.258;2023-05-16T09:48:14;25.40;;;16.20;;
41755;SDS011;27435;48.480;9.258;2023-05-16T09:50:45;24.70;;;16.20;;
41755;SDS011;27435;48.480;9.258;2023-05-16T09:53:13;24.30;;;16.00;;
41755;SDS011;27435;48.480;9.258;2023-05-16T09:55:39;25.50;;;16.10;;
41755;SDS011;27435;48.480;9.258;2023-05-16T09:58:05;26.03;;;17.30;;
41755;SDS011;27435;48.480;9.258;2023-05-16T10:00:31;26.53;;;17.03;;
41755;SDS011;27435;48.480;9.258;2023-05-16T10:02:58;30.87;;;18.07;;
41755;SDS011;27435;48.480;9.258;2023-05-16T10:05:27;25.67;;;17.43;;
41755;SDS011;27435;48.480;9.258;2023-05-16T10:07:56;25.27;;;17.03;;
41755;SDS011;27435;48.480;9.258;2023-05-16T10:10:23;28.33;;;17.70;;
41755;SDS011;27435;48.480;9.258;2023-05-16T10:12:49;33.93;;;18.53;;
41755;SDS011;27435;48.480;9.258;2023-05-16T10:15:16;35.13;;;18.80;;
41755;SDS011;27435;48.480;9.258;2023-05-16T10:17:44;27.10;;;18.60;;
41755;SDS011;27435;48.480;9.258;2023-05-16T10:20:12;28.93;;;17.73;;
41755;SDS011;27435;48.480;9.258;2023-05-16T10:22:40;29.80;;;18.10;;
41755;SDS011;27435;48.480;9.258;2023-05-16T10:32:35;29.30;;;17.50;;
41755;SDS011;27435;48.480;9.258;2023-05-16T10:35:02;30.23;;;19.23;;
41755;SDS011;27435;48.480;9.258;2023-05-16T10:37:29;29.27;;;19.43;;
41755;SDS011;27435;48.480;9.258;2023-05-16T10:39:56;38.10;;;19.27;;
41755;SDS011;27435;48.480;9.258;2023-05-16T10:42:25;29.90;;;18.83;;
41755;SDS011;27435;48.480;9.258;2023-05-16T10:44:52;35.30;;;19.53;;
41755;SDS011;27435;48.480;9.258;2023-05-16T10:47:20;33.07;;;18.13;;
41755;SDS011;27435;48.480;9.258;2023-05-16T10:49:46;29.90;;;17.87;;
41755;SDS011;27435;48.480;9.258;2023-05-16T10:52:11;30.10;;;17.80;;
41755;SDS011;27435;48.480;9.258;2023-05-16T10:54:43;31.70;;;18.17;;
41755;SDS011;27435;48.480;9.258;2023-05-16T10:57:16;32.03;;;17.97;;
41755;SDS011;27435;48.480;9.258;2023-05-16T10:59:46;26.50;;;17.03;;
41755;SDS011;27435;48.480;9.258;2023-05-16T11:02:32;34.33;;;16.90;;
41755;SDS011;27435;48.480;9.258;2023-05-16T11:05:03;26.20;;;17.37;;
41755;SDS011;27435;48.480;9.258;2023-05-16T11:07:31;26.27;;;16.33;;
41755;SDS011;27435;48.480;9.258;2023-05-16T11:10:04;25.40;;;16.10;;
41755;SDS011;27435;48.480;9.258;2023-05-16T11:12:37;26.13;;;16.83;;
41755;SDS011;27435;48.480;9.258;2023-05-16T11:15:25;27.07;;;16.70;;
41755;SDS011;27435;48.480;9.258;2023-05-16T11:18:03;32.60;;;18.53;;
41755;SDS011;27435;48.480;9.258;2023-05-16T11:20:36;25.93;;;16.40;;
41755;SDS011;27435;48.480;9.258;2023-05-16T11:25:53;28.57;;;16.13;;
41755;SDS011;27435;48.480;9.258;2023-05-16T11:28:21;27.20;;;17.07;;
41755;SDS011;27435;48.480;9.258;2023-05-16T11:30:50;26.10;;;16.63;;
41755;SDS011;27435;48.480;9.258;2023-05-16T11:33:19;28.70;;;17.17;;
41755;SDS011;27435;48.480;9.258;2023-05-16T11:36:02;28.90;;;17.10;;
41755;SDS011;27435;48.480;9.258;2023-05-16T11:38:30;106.50;;;51.37;;
41755;SDS011;27435;48.480;9.258;2023-05-16T11:41:06;26.93;;;16.93;;
41755;SDS011;27435;48.480;9.258;2023-05-16T11:43:43;28.30;;;16.83;;
41755;SDS011;27435;48.480;9.258;2023-05-16T11:46:10;25.13;;;15.53;;
41755;SDS011;27435;48.480;9.258;2023-05-16T11:48:39;30.00;;;16.80;;
41755;SDS011;27435;48.480;9.258;2023-05-16T11:51:05;30.23;;;18.40;;
41755;SDS011;27435;48.480;9.258;2023-05-16T11:53:31;26.47;;;16.90;;
41755;SDS011;27435;48.480;9.258;2023-05-16T11:55:57;25.87;;;15.43;;
41755;SDS011;27435;48.480;9.258;2023-05-16T11:58:25;28.77;;;16.60;;
41755;SDS011;27435;48.480;9.258;2023-05-16T12:00:51;25.60;;;14.93;;
41755;SDS011;27435;48.480;9.258;2023-05-16T12:03:18;26.53;;;16.30;;
41755;SDS011;27435;48.480;9.258;2023-05-16T12:05:54;30.30;;;17.73;;
41755;SDS011;27435;48.480;9.258;2023-05-16T12:08:23;28.00;;;16.70;;
41755;SDS011;27435;48.480;9.258;2023-05-16T12:10:49;27.30;;;16.87;;
41755;SDS011;27435;48.480;9.258;2023-05-16T12:13:17;25.00;;;15.30;;
41755;SDS011;27435;48.480;9.258;2023-05-16T12:15:44;26.60;;;15.57;;
41755;SDS011;27435;48.480;9.258;2023-05-16T12:18:10;26.13;;;15.07;;
41755;SDS011;27435;48.480;9.258;2023-05-16T12:20:37;25.53;;;15.07;;
41755;SDS011;27435;48.480;9.258;2023-05-16T12:23:03;25.53;;;14.37;;
41755;SDS011;27435;48.480;9.258;2023-05-16T12:25:29;26.30;;;15.67;;
41755;SDS011;27435;48.480;9.258;2023-05-16T12:28:00;24.65;;;14.65;;
41755;SDS011;27435;48.480;9.258;2023-05-16T12:30:27;29.90;;;14.55;;
41755;SDS011;27435;48.480;9.258;2023-05-16T12:35:46;26.60;;;14.50;;
41755;SDS011;27435;48.480;9.258;2023-05-16T12:38:13;27.17;;;14.53;;
41755;SDS011;27435;48.480;9.258;2023-05-16T12:40:41;24.07;;;14.70;;
41755;SDS011;27435;48.480;9.258;2023-05-16T12:43:14;22.40;;;12.57;;
41755;SDS011;27435;48.480;9.258;2023-05-16T12:45:41;23.13;;;11.97;;
41755;SDS011;27435;48.480;9.258;2023-05-16T12:48:16;25.13;;;11.73;;
41755;SDS011;27435;48.480;9.258;2023-05-16T12:50:42;17.23;;;9.38;;
41755;SDS011;27435;48.480;9.258;2023-05-16T12:53:13;21.60;;;11.33;;
41755;SDS011;27435;48.480;9.258;2023-05-16T12:55:41;19.17;;;10.63;;
41755;SDS011;27435;48.480;9.258;2023-05-16T12:58:08;21.27;;;11.57;;
41755;SDS011;27435;48.480;9.258;2023-05-16T13:00:34;18.80;;;11.17;;
41755;SDS011;27435;48.480;9.258;2023-05-16T13:03:01;21.67;;;12.20;;
41755;SDS011;27435;48.480;9.258;2023-05-16T13:05:28;21.53;;;11.90;;
41755;SDS011;27435;48.480;9.258;2023-05-16T13:07:54;19.57;;;11.53;;
41755;SDS011;27435;48.480;9.258;2023-05-16T13:10:19;23.03;;;12.40;;
41755;SDS011;27435;48.480;9.258;2023-05-16T13:12:45;23.23;;;11.90;;
41755;SDS011;27435;48.480;9.258;2023-05-16T13:15:11;24.87;;;13.20;;
41755;SDS011;27435;48.480;9.258;2023-05-16T13:17:38;21.70;;;12.93;;
41755;SDS011;27435;48.480;9.258;2023-05-16T13:20:04;24.23;;;13.50;;
41755;SDS011;27435;48.480;9.258;2023-05-16T13:22:36;26.93;;;15.37;;
41755;SDS011;27435;48.480;9.258;2023-05-16T13:25:03;25.17;;;14.00;;
41755;SDS011;27435;48.480;9.258;2023-05-16T13:27:30;24.40;;;12.63;;
41755;SDS011;27435;48.480;9.258;2023-05-16T13:29:56;25.40;;;13.60;;
41755;SDS011;27435;48.480;9.258;2023-05-16T13:32:22;27.70;;;15.07;;
41755;SDS011;27435;48.480;9.258;2023-05-16T13:34:48;29.77;;;14.67;;
41755;SDS011;27435;48.480;9.258;2023-05-16T13:37:14;22.27;;;13.33;;
41755;SDS011;27435;48.480;9.258;2023-05-16T13:39:40;26.47;;;15.10;;
41755;SDS011;27435;48.480;9.258;2023-05-16T13:42:06;23.13;;;13.90;;
41755;SDS011;27435;48.480;9.258;2023-05-16T13:44:31;26.77;;;15.13;;
41755;SDS011;27435;48.480;9.258;2023-05-16T13:46:57;23.33;;;13.07;;
41755;SDS011;27435;48.480;9.258;2023-05-16T13:49:23;23.87;;;13.63;;
41755;SDS011;27435;48.480;9.258;2023-05-16T13:51:49;21.03;;;13.00;;
41755;SDS011;27435;48.480;9.258;2023-05-16T13:54:16;28.43;;;14.83;;
41755;SDS011;27435;48.480;9.258;2023-05-16T13:56:42;25.37;;;14.20;;
41755;SDS011;27435;48.480;9.258;2023-05-16T13:59:09;24.17;;;13.27;;
41755;SDS011;27435;48.480;9.258;2023-05-16T14:01:35;22.10;;;12.57;;
41755;SDS011;27435;48.480;9.258;2023-05-16T14:04:01;19.40;;;10.93;;
41755;SDS011;27435;48.480;9.258;2023-05-16T14:06:27;18.17;;;10.53;;
41755;SDS011;27435;48.480;9.258;2023-05-16T14:08:53;20.53;;;11.60;;
41755;SDS011;27435;48.480;9.258;2023-05-16T14:11:18;20.47;;;11.23;;
41755;SDS011;27435;48.480;9.258;2023-05-16T14:13:47;16.87;;;10.23;;
41755;SDS011;27435;48.480;9.258;2023-05-16T14:16:13;14.50;;;9.20;;
41755;SDS011;27435;48.480;9.258;2023-05-16T14:18:39;12.93;;;8.93;;
41755;SDS011;27435;48.480;9.258;2023-05-16T14:21:05;11.83;;;7.67;;
41755;SDS011;27435;48.480;9.258;2023-05-16T14:23:30;14.40;;;8.57;;
41755;SDS011;27435;48.480;9.258;2023-05-16T14:25:56;14.10;;;9.17;;
41755;SDS011;27435;48.480;9.258;2023-05-16T14:28:22;13.27;;;8.20;;
41755;SDS011;27435;48.480;9.258;2023-05-16T14:30:47;14.57;;;8.43;;
41755;SDS011;27435;48.480;9.258;2023-05-16T14:33:13;11.23;;;7.90;;
41755;SDS011;27435;48.480;9.258;2023-05-16T14:35:38;11.63;;;6.43;;
41755;SDS011;27435;48.480;9.258;2023-05-16T14:38:05;11.77;;;6.43;;
41755;SDS011;27435;48.480;9.258;2023-05-16T14:40:31;10.00;;;6.60;;
41755;SDS011;27435;48.480;9.258;2023-05-16T14:42:58;9.70;;;6.97;;
41755;SDS011;27435;48.480;9.258;2023-05-16T14:45:23;8.90;;;6.37;;